Hauptseite
METAR-TAF:

METAR-TAF

Flughäfen :

Fliegerhorst Ingolstadt/Manching

Ingolstadt, Deutschland

Breite: 48-43N, Länge: 011-32E, Höhe: 367 m

Beobachtung

Neuester Wetterbericht von vor 28 Minuten, um 01:20 UTC
Wind 1 kt aus Nordost
Temperatur 17°C
Luftfeuchtigkeit 82%
Luftdruck 1014 hPa
Sichtweite: 6000 m

METAR: ETSI 180120Z AUTO 04001KT 6000 // ////// 17/14 Q1014 ///

Zeit: 03:48 (01:48 UTC)

Prognose

Neuester Wetterbericht von vor 12 Stunden und 39 Minuten, um 13:09 UTC
Gültige Prognose vom 17 um 14 UTC bis 17 um 23 UTC
Wind 5 kt aus Ost/Nordost
Sichtweite 10 km oder mehr
Leicht bewölkt in der Höhe von 7000 ft

TAF: ETSI 171309Z 1714/1723 06005KT 9999 NSW FEW070

Wetterbeobachtungen und Prognosen von mehr als 4000 Flughäfen (METAR und TAF Bericht).

Die verfügbaren Stationen werden durch gelbe und rote Markierungen auf der Karte dargestellt.

Führen Sie die Maus auf sie, um den Namen der Station zu sehen.

Darauf klicken, um die Beobachtung von Wetterbeobachtungen und Prognosen zu sehen.

Um die Karte zu ändern : klicken Sie auf den grünen Tasten mit einem schwarzen Kreuz Zum Vergrößern, auf den grünen Button mit einem Gedankenstrich zu verkleinern, oder auf die grünen Pfeile für benachbarte Karten.


METAR-TAF: